CheckWX is a tool to help pilots better visualize weather data.  It is not intended as a substitute for an official pre-flight weather briefing.

21:46:36 UTC

KDRA METAR
Desert Rock Airport
Mercury, Nevada, USA
Current

54 mins ago

KDRA 232053Z AUTO 22020G24KT 10SM BKN070 OVC080 17/03 A2984 RMK AO2 SLP080 T01670033 52004 $
Observed
May-23 @ 20:53 UTC
Wind
  • 220° at 20 KTS
  • Gusting to 24 KTS
Visibility
10 SM
Flight Rules
VFR
Cloud Levels
  • Broken at 7,000' AGL
  • Overcast at 8,000' AGL
Temperature
17°C / 63°F
Dewpoint
C / 37°F
Humidity
39%
Altimeter
29.84" Hg
Pressure
1010.52 hPa
Previous

2 hours ago

KDRA 231953Z AUTO 24017G24KT 10SM BKN080 17/03 A2984 RMK AO2 PK WND 24026/1933 SLP077 T01720028 $
Observed
May-23 @ 19:53 UTC
Wind
  • 240° at 17 KTS
  • Gusting to 24 KTS
Visibility
10 SM
Flight Rules
VFR
Cloud Levels
  • Broken at 8,000' AGL
Temperature
17°C / 63°F
Dewpoint
C / 37°F
Humidity
39%
Altimeter
29.84" Hg
Pressure
1010.52 hPa
Previous

3 hours ago

KDRA 231853Z AUTO 23013G23KT 10SM FEW045 SCT060 OVC090 16/03 A2983 RMK AO2 SLP077 T01610033 $
Observed
May-23 @ 18:53 UTC
Wind
  • 230° at 13 KTS
  • Gusting to 23 KTS
Visibility
10 SM
Flight Rules
VFR
Cloud Levels
  • Few at 4,500' AGL
  • Scattered at 6,000' AGL
  • Overcast at 9,000' AGL
Temperature
16°C / 61°F
Dewpoint
C / 37°F
Humidity
42%
Altimeter
29.83" Hg
Pressure
1010.12 hPa